createdAt,value
2022-10-25T00:02:10.508Z,0.70
2022-10-25T00:04:37.103Z,0.63
2022-10-25T00:07:03.620Z,0.80
2022-10-25T00:09:30.085Z,0.73
2022-10-25T00:11:56.595Z,0.90
2022-10-25T00:14:24.470Z,0.80
2022-10-25T00:16:50.957Z,0.63
2022-10-25T00:19:18.226Z,0.60
2022-10-25T00:21:44.826Z,0.73
2022-10-25T00:24:12.026Z,0.90
2022-10-25T00:26:38.717Z,0.67
2022-10-25T00:29:05.197Z,0.50
2022-10-25T00:31:33.088Z,0.80
2022-10-25T00:33:59.586Z,0.67
2022-10-25T00:36:26.984Z,0.90
2022-10-25T00:38:55.682Z,0.60
2022-10-25T00:41:24.347Z,0.60
2022-10-25T00:43:52.782Z,0.67
2022-10-25T00:46:24.271Z,0.80
2022-10-25T00:48:57.251Z,0.70
2022-10-25T00:51:27.948Z,0.70
2022-10-25T00:53:55.303Z,0.70
2022-10-25T00:56:25.432Z,0.90
2022-10-25T00:58:55.614Z,1.00
2022-10-25T01:01:23.851Z,0.97
2022-10-25T01:03:56.068Z,0.70
2022-10-25T01:06:26.935Z,0.70
2022-10-25T01:08:55.077Z,0.50
2022-10-25T01:11:21.595Z,0.67
2022-10-25T01:13:49.045Z,0.70
2022-10-25T01:16:24.050Z,0.73
2022-10-25T01:18:58.293Z,0.73
2022-10-25T01:21:46.921Z,0.80
2022-10-25T01:24:29.702Z,0.90
2022-10-25T01:27:11.288Z,0.77
2022-10-25T01:29:57.730Z,0.80
2022-10-25T01:32:34.795Z,0.77
2022-10-25T01:35:08.752Z,0.60
2022-10-25T01:37:43.626Z,0.70
2022-10-25T01:40:19.096Z,0.80
2022-10-25T01:42:51.758Z,0.80
2022-10-25T01:45:24.250Z,0.70
2022-10-25T01:47:56.145Z,0.70
2022-10-25T01:50:27.211Z,1.07
2022-10-25T01:55:27.034Z,0.57
2022-10-25T01:58:05.212Z,0.70
2022-10-25T02:00:37.462Z,0.60
2022-10-25T02:03:14.263Z,1.13
2022-10-25T02:05:56.098Z,0.90
2022-10-25T02:08:31.609Z,0.77
2022-10-25T02:11:05.408Z,0.80
2022-10-25T02:13:38.633Z,0.77
2022-10-25T02:16:10.752Z,0.70
2022-10-25T02:18:43.369Z,0.80
2022-10-25T02:21:11.839Z,0.80
2022-10-25T02:23:40.045Z,0.83
2022-10-25T02:26:08.281Z,0.70
2022-10-25T02:28:38.756Z,0.80
2022-10-25T02:31:07.427Z,0.80
2022-10-25T02:33:33.976Z,1.10
2022-10-25T02:36:14.351Z,0.60
2022-10-25T02:38:42.289Z,0.73
2022-10-25T02:41:09.306Z,0.70
2022-10-25T02:43:35.940Z,1.00
2022-10-25T02:46:06.474Z,0.80
2022-10-25T02:48:33.034Z,0.77
2022-10-25T02:50:59.566Z,0.83
2022-10-25T02:53:27.642Z,0.73
2022-10-25T02:56:00.238Z,0.63
2022-10-25T02:58:28.665Z,0.70
2022-10-25T03:00:55.181Z,0.67
2022-10-25T03:03:21.688Z,0.80
2022-10-25T03:05:48.164Z,0.80
2022-10-25T03:08:14.666Z,1.10
2022-10-25T03:10:42.523Z,0.90
2022-10-25T03:13:09.038Z,0.80
2022-10-25T03:15:35.576Z,0.87
2022-10-25T03:18:02.061Z,0.73
2022-10-25T03:20:28.554Z,0.70
2022-10-25T03:22:55.112Z,0.80
2022-10-25T03:25:21.618Z,0.70
2022-10-25T03:27:49.803Z,0.53
2022-10-25T03:30:16.498Z,0.80
2022-10-25T03:32:43.063Z,0.73
2022-10-25T03:35:09.844Z,0.60
2022-10-25T03:37:36.337Z,0.67
2022-10-25T03:40:02.934Z,1.00
2022-10-25T03:42:29.420Z,0.97
2022-10-25T03:44:57.284Z,1.20
2022-10-25T03:47:23.821Z,1.07
2022-10-25T03:49:50.300Z,1.07
2022-10-25T03:52:16.773Z,1.00
2022-10-25T03:54:43.273Z,1.13
2022-10-25T03:57:10.898Z,1.27
2022-10-25T03:59:37.391Z,1.50
2022-10-25T04:02:05.318Z,1.47
2022-10-25T04:04:31.912Z,1.60
2022-10-25T04:06:58.404Z,1.47
2022-10-25T04:09:24.945Z,1.13
2022-10-25T04:11:51.456Z,1.50
2022-10-25T04:14:18.034Z,1.40
2022-10-25T04:16:44.518Z,1.40
2022-10-25T04:19:12.380Z,1.10
2022-10-25T04:21:38.878Z,1.40
2022-10-25T04:24:05.801Z,1.07
2022-10-25T04:26:32.463Z,0.87
2022-10-25T04:28:58.938Z,1.10
2022-10-25T04:31:25.553Z,1.30
2022-10-25T04:33:53.329Z,0.90
2022-10-25T04:36:21.562Z,0.97
2022-10-25T04:38:48.146Z,0.80
2022-10-25T04:41:14.980Z,0.97
2022-10-25T04:43:41.631Z,0.90
2022-10-25T04:46:08.208Z,1.20
2022-10-25T04:48:37.126Z,1.23
2022-10-25T04:51:03.843Z,1.30
2022-10-25T04:53:32.250Z,1.17
2022-10-25T04:56:00.097Z,1.07
2022-10-25T04:58:30.440Z,1.20
2022-10-25T05:00:59.793Z,1.30
2022-10-25T05:03:26.458Z,1.20
2022-10-25T05:05:52.990Z,1.43
2022-10-25T05:08:19.540Z,1.60
2022-10-25T05:10:54.141Z,1.57
2022-10-25T05:13:20.662Z,1.30
2022-10-25T05:15:54.184Z,1.07
2022-10-25T05:18:20.793Z,1.40
2022-10-25T05:20:51.677Z,1.37
2022-10-25T05:23:18.153Z,1.20
2022-10-25T05:25:45.069Z,1.30
2022-10-25T05:28:12.971Z,1.40
2022-10-25T05:30:40.767Z,1.23
2022-10-25T05:33:07.313Z,1.90
2022-10-25T05:35:34.066Z,1.87
2022-10-25T05:38:00.836Z,1.40
2022-10-25T05:40:27.747Z,1.40
2022-10-25T05:42:54.460Z,1.53
2022-10-25T05:45:22.300Z,1.23
2022-10-25T05:47:48.797Z,1.63
2022-10-25T05:50:15.641Z,1.80
2022-10-25T05:52:42.522Z,2.47
2022-10-25T05:55:09.449Z,2.43
2022-10-25T05:57:36.002Z,3.07
2022-10-25T06:00:03.538Z,2.40
2022-10-25T06:02:31.536Z,1.80
2022-10-25T06:04:58.117Z,1.40
2022-10-25T06:07:24.812Z,1.20
2022-10-25T06:09:51.305Z,1.20
2022-10-25T06:12:17.862Z,1.13
2022-10-25T06:14:44.387Z,1.17
2022-10-25T06:17:12.183Z,1.10
2022-10-25T06:19:40.086Z,1.00
2022-10-25T06:22:06.629Z,1.00
2022-10-25T06:24:33.156Z,1.60
2022-10-25T06:26:59.707Z,1.60
2022-10-25T06:29:26.205Z,1.83
2022-10-25T06:31:52.728Z,2.00
2022-10-25T06:34:19.226Z,2.00
2022-10-25T06:36:47.124Z,1.67
2022-10-25T06:39:13.635Z,1.53
2022-10-25T06:41:40.161Z,1.60
2022-10-25T06:44:07.485Z,1.30
2022-10-25T06:46:40.560Z,1.60
2022-10-25T06:49:19.022Z,1.20
2022-10-25T06:51:46.872Z,1.47
2022-10-25T06:54:13.408Z,0.90
2022-10-25T06:56:39.922Z,1.40
2022-10-25T06:59:07.196Z,1.23
2022-10-25T07:01:33.796Z,1.13
2022-10-25T07:04:02.680Z,1.20
2022-10-25T07:09:05.005Z,1.10
2022-10-25T07:11:33.028Z,1.07
2022-10-25T07:14:00.432Z,1.10
2022-10-25T07:16:28.203Z,1.20
2022-10-25T07:18:58.580Z,0.93
2022-10-25T07:21:25.469Z,1.20
2022-10-25T07:23:51.989Z,0.90
2022-10-25T07:26:21.741Z,1.00
2022-10-25T07:28:50.338Z,1.50
2022-10-25T07:31:19.364Z,1.50
2022-10-25T07:33:45.908Z,1.13
2022-10-25T07:36:12.506Z,1.50
2022-10-25T07:38:39.069Z,1.10
2022-10-25T07:41:06.032Z,1.47
2022-10-25T07:43:33.932Z,1.93
2022-10-25T07:46:00.525Z,2.57
2022-10-25T07:48:27.284Z,1.73
2022-10-25T07:50:53.839Z,1.97
2022-10-25T07:53:20.313Z,1.87
2022-10-25T07:55:50.122Z,1.60
2022-10-25T07:58:16.638Z,1.20
2022-10-25T08:00:44.493Z,1.50
2022-10-25T08:03:12.126Z,1.40
2022-10-25T08:05:38.744Z,1.40
2022-10-25T08:08:05.518Z,1.40
2022-10-25T08:10:32.364Z,1.30
2022-10-25T08:12:58.887Z,1.40
2022-10-25T08:15:25.424Z,1.37
2022-10-25T08:17:58.586Z,1.70
2022-10-25T08:20:43.027Z,1.30
2022-10-25T08:23:12.341Z,1.50
2022-10-25T08:25:38.889Z,1.00
2022-10-25T08:28:05.515Z,1.30
2022-10-25T08:30:32.027Z,1.30
2022-10-25T08:32:59.918Z,1.00
2022-10-25T08:35:26.460Z,1.47
2022-10-25T08:37:52.986Z,1.70
2022-10-25T08:40:24.587Z,1.20
2022-10-25T08:43:01.098Z,1.30
2022-10-25T08:45:35.266Z,1.10
2022-10-25T08:48:05.398Z,1.30
2022-10-25T08:50:40.085Z,1.00
2022-10-25T08:53:13.945Z,1.20
2022-10-25T08:55:58.758Z,1.20
2022-10-25T08:58:33.333Z,1.50
2022-10-25T09:01:03.702Z,1.03
2022-10-25T09:03:31.866Z,0.83
2022-10-25T09:06:08.612Z,1.20
2022-10-25T09:08:49.189Z,0.87
2022-10-25T09:11:25.873Z,1.30
2022-10-25T09:13:58.222Z,1.10
2022-10-25T09:16:32.043Z,1.20
2022-10-25T09:19:03.654Z,1.53
2022-10-25T09:21:38.685Z,1.30
2022-10-25T09:24:11.528Z,1.20
2022-10-25T09:26:40.958Z,1.30
2022-10-25T09:29:14.682Z,1.33
2022-10-25T09:31:45.494Z,1.53
2022-10-25T09:34:17.019Z,1.20
2022-10-25T09:36:46.607Z,1.50
2022-10-25T09:39:19.580Z,1.40
2022-10-25T09:41:49.590Z,1.40
2022-10-25T09:44:25.370Z,1.10
2022-10-25T09:46:54.542Z,1.40
2022-10-25T09:49:29.135Z,1.60
2022-10-25T09:52:02.934Z,1.53
2022-10-25T09:54:34.950Z,1.10
2022-10-25T09:57:01.476Z,1.30
2022-10-25T09:59:28.214Z,1.53
2022-10-25T10:01:55.071Z,1.30
2022-10-25T10:04:33.879Z,1.10
2022-10-25T10:07:06.448Z,1.00
2022-10-25T10:09:36.836Z,1.53
2022-10-25T10:12:04.505Z,1.37
2022-10-25T10:14:36.078Z,1.33
2022-10-25T10:17:03.450Z,1.00
2022-10-25T10:19:31.566Z,1.27
2022-10-25T10:22:00.450Z,1.00
2022-10-25T10:24:29.233Z,0.90
2022-10-25T10:26:58.060Z,1.07
2022-10-25T10:29:29.050Z,1.00
2022-10-25T10:31:57.842Z,1.10
2022-10-25T10:34:32.264Z,0.90
2022-10-25T10:37:13.101Z,1.20
2022-10-25T10:39:49.106Z,0.90
2022-10-25T10:42:17.560Z,1.00
2022-10-25T10:45:01.629Z,1.00
2022-10-25T10:47:33.436Z,1.00
2022-10-25T10:50:02.419Z,1.10
2022-10-25T10:52:31.785Z,1.10
2022-10-25T10:54:58.999Z,1.00
2022-10-25T10:57:31.163Z,1.33
2022-10-25T10:59:59.144Z,1.07
2022-10-25T11:02:35.502Z,1.17
2022-10-25T11:05:18.456Z,1.10
2022-10-25T11:07:45.331Z,0.97
2022-10-25T11:10:20.629Z,0.90
2022-10-25T11:13:08.330Z,0.80
2022-10-25T11:15:46.844Z,1.07
2022-10-25T11:18:14.812Z,1.20
2022-10-25T11:20:50.742Z,1.17
2022-10-25T11:23:24.564Z,1.30
2022-10-25T11:25:56.835Z,1.10
2022-10-25T11:28:37.898Z,1.00
2022-10-25T11:31:14.615Z,1.10
2022-10-25T11:33:47.989Z,1.00
2022-10-25T11:36:45.854Z,1.00
2022-10-25T11:39:34.714Z,1.03
2022-10-25T11:42:13.408Z,0.90
2022-10-25T11:44:54.074Z,0.87
2022-10-25T11:47:33.824Z,0.90
2022-10-25T11:50:14.953Z,1.47
2022-10-25T11:53:19.993Z,0.80
2022-10-25T11:55:52.410Z,1.20
2022-10-25T11:58:30.031Z,0.87
2022-10-25T12:01:04.150Z,1.20
2022-10-25T12:03:48.408Z,0.90
2022-10-25T12:06:21.332Z,1.00
2022-10-25T12:08:58.747Z,1.00
2022-10-25T12:11:30.364Z,1.17
2022-10-25T12:14:00.539Z,1.10
2022-10-25T12:16:30.063Z,0.80
2022-10-25T12:19:04.845Z,0.80
2022-10-25T12:21:42.895Z,0.80
2022-10-25T12:24:18.274Z,1.10
2022-10-25T12:26:48.794Z,1.10
2022-10-25T12:29:20.070Z,1.00
2022-10-25T12:31:50.558Z,1.20
2022-10-25T12:34:20.822Z,0.83
2022-10-25T12:36:51.935Z,0.70
2022-10-25T12:39:22.967Z,0.80
2022-10-25T12:41:56.075Z,0.80
2022-10-25T12:44:48.502Z,1.10
2022-10-25T12:47:33.947Z,1.00
2022-10-25T12:50:38.745Z,0.80
2022-10-25T12:53:30.397Z,0.70
2022-10-25T12:56:01.893Z,0.70
2022-10-25T12:58:51.414Z,0.93
2022-10-25T13:01:35.256Z,0.90
2022-10-25T13:04:32.725Z,0.73
2022-10-25T13:07:00.341Z,0.73
2022-10-25T13:09:32.018Z,0.80
2022-10-25T13:12:01.206Z,0.80
2022-10-25T13:14:31.952Z,0.90
2022-10-25T13:17:44.569Z,0.70
2022-10-25T13:20:45.278Z,0.87
2022-10-25T13:24:00.446Z,0.87
2022-10-25T13:26:32.901Z,1.03
2022-10-25T13:29:01.811Z,1.07
2022-10-25T13:31:47.069Z,0.80
2022-10-25T13:34:37.820Z,1.03
2022-10-25T13:37:06.717Z,1.03
2022-10-25T13:39:38.672Z,0.90
2022-10-25T13:42:21.984Z,0.87
2022-10-25T13:44:54.741Z,1.07
2022-10-25T13:47:35.929Z,1.13
2022-10-25T13:50:13.113Z,0.83
2022-10-25T13:52:48.762Z,1.00
2022-10-25T13:55:19.999Z,0.90
2022-10-25T13:57:51.841Z,0.80
2022-10-25T14:00:42.364Z,0.90
2022-10-25T14:03:34.953Z,0.93
2022-10-25T14:06:26.722Z,0.80
2022-10-25T14:09:08.367Z,1.27
2022-10-25T14:11:38.280Z,1.00
2022-10-25T14:14:16.091Z,1.13
2022-10-25T14:16:54.324Z,0.93
2022-10-25T14:19:31.955Z,0.90
2022-10-25T14:22:03.806Z,1.10
2022-10-25T14:24:30.754Z,0.97
2022-10-25T14:26:59.214Z,1.00
2022-10-25T14:29:27.626Z,0.83
2022-10-25T14:31:55.166Z,0.97
2022-10-25T14:34:25.088Z,0.87
2022-10-25T14:36:53.217Z,0.97
2022-10-25T14:39:21.760Z,1.00
2022-10-25T14:41:53.715Z,0.90
2022-10-25T14:44:22.237Z,0.90
2022-10-25T14:46:48.735Z,1.10
2022-10-25T14:49:15.297Z,1.00
2022-10-25T14:51:44.549Z,0.87
2022-10-25T14:54:24.778Z,1.00
2022-10-25T14:56:54.691Z,0.90
2022-10-25T14:59:24.839Z,0.93
2022-10-25T15:01:52.913Z,1.20
2022-10-25T15:04:26.013Z,1.00
2022-10-25T15:06:54.118Z,1.40
2022-10-25T15:12:15.530Z,1.30
2022-10-25T15:14:42.310Z,1.27
2022-10-25T15:17:16.934Z,1.27
2022-10-25T15:20:00.813Z,1.77
2022-10-25T15:22:31.538Z,1.20
2022-10-25T15:24:58.315Z,0.87
2022-10-25T15:27:27.339Z,1.17
2022-10-25T15:29:54.092Z,1.00
2022-10-25T15:32:21.970Z,1.13
2022-10-25T15:34:50.463Z,1.60
2022-10-25T15:37:19.179Z,2.30
2022-10-25T15:39:48.315Z,2.00
2022-10-25T15:42:15.705Z,1.20
2022-10-25T15:44:42.441Z,1.40
2022-10-25T15:47:29.258Z,1.53
2022-10-25T15:49:56.330Z,1.37
2022-10-25T15:52:25.561Z,1.33
2022-10-25T15:54:53.448Z,1.73
2022-10-25T15:57:19.987Z,1.50
2022-10-25T15:59:46.479Z,1.80
2022-10-25T16:02:19.366Z,2.17
2022-10-25T16:04:46.838Z,3.37
2022-10-25T16:07:14.038Z,3.10
2022-10-25T16:09:40.562Z,2.93
2022-10-25T16:12:11.996Z,2.93
2022-10-25T16:14:38.588Z,3.00
2022-10-25T16:17:05.068Z,2.73
2022-10-25T16:19:31.674Z,3.23
2022-10-25T16:21:58.563Z,4.67
2022-10-25T16:24:25.067Z,5.90
2022-10-25T16:26:51.729Z,5.53
2022-10-25T16:29:21.224Z,4.70
2022-10-25T16:31:47.793Z,4.20
2022-10-25T16:34:14.276Z,4.00
2022-10-25T16:36:40.788Z,2.90
2022-10-25T16:39:07.294Z,2.83
2022-10-25T16:41:33.836Z,1.90
2022-10-25T16:44:00.409Z,1.70
2022-10-25T16:46:28.283Z,1.40
2022-10-25T16:48:56.975Z,1.70
2022-10-25T16:51:26.085Z,2.10
2022-10-25T16:53:52.617Z,2.43
2022-10-25T16:56:19.213Z,2.90
2022-10-25T16:58:45.712Z,2.87
2022-10-25T17:01:20.170Z,3.40
2022-10-25T17:03:51.719Z,3.30
2022-10-25T17:06:40.181Z,3.37
2022-10-25T17:09:06.216Z,3.20
2022-10-25T17:11:32.691Z,3.37
2022-10-25T17:13:59.179Z,4.17
2022-10-25T17:16:25.969Z,4.73
2022-10-25T17:18:53.854Z,4.77
2022-10-25T17:21:20.369Z,5.63
2022-10-25T17:23:46.879Z,6.60
2022-10-25T17:26:13.373Z,6.43
2022-10-25T17:28:43.201Z,4.40
2022-10-25T17:31:13.769Z,2.70
2022-10-25T17:33:40.875Z,2.40
2022-10-25T17:36:12.180Z,2.20
2022-10-25T17:38:39.067Z,1.87
2022-10-25T17:41:06.492Z,2.20
2022-10-25T17:43:34.608Z,2.53
2022-10-25T17:46:01.541Z,2.80
2022-10-25T17:48:28.543Z,2.87
2022-10-25T17:51:00.396Z,3.93
2022-10-25T17:53:29.198Z,2.80
2022-10-25T17:55:55.815Z,2.47
2022-10-25T17:58:22.314Z,2.07
2022-10-25T18:00:48.837Z,1.63
2022-10-25T18:03:15.344Z,1.50
2022-10-25T18:05:41.877Z,1.60
2022-10-25T18:08:08.381Z,1.50
2022-10-25T18:10:36.210Z,2.20
2022-10-25T18:13:02.712Z,1.83
2022-10-25T18:15:29.238Z,2.20
2022-10-25T18:17:55.729Z,2.10
2022-10-25T18:20:22.235Z,2.70
2022-10-25T18:22:48.744Z,3.03
2022-10-25T18:25:15.380Z,2.83
2022-10-25T18:27:43.249Z,2.93
2022-10-25T18:30:11.163Z,2.70
2022-10-25T18:32:37.692Z,2.80
2022-10-25T18:35:04.479Z,3.67
2022-10-25T18:37:30.976Z,2.60
2022-10-25T18:39:57.473Z,2.97
2022-10-25T18:42:23.962Z,3.13
2022-10-25T18:44:51.845Z,3.80
2022-10-25T18:47:18.315Z,3.67
2022-10-25T18:49:44.841Z,3.60
2022-10-25T18:52:11.365Z,4.00
2022-10-25T18:54:37.877Z,4.40
2022-10-25T18:57:04.746Z,3.03
2022-10-25T18:59:31.244Z,3.43
2022-10-25T19:01:59.331Z,3.27
2022-10-25T19:04:26.015Z,3.00
2022-10-25T19:06:52.530Z,3.67
2022-10-25T19:09:19.125Z,3.87
2022-10-25T19:11:45.626Z,4.00
2022-10-25T19:14:12.166Z,3.17
2022-10-25T19:16:38.782Z,3.70
2022-10-25T19:19:06.835Z,3.13
2022-10-25T19:21:33.495Z,3.10
2022-10-25T19:24:00.056Z,3.10
2022-10-25T19:26:26.638Z,2.87
2022-10-25T19:28:57.565Z,3.03
2022-10-25T19:31:24.879Z,3.00
2022-10-25T19:33:51.798Z,3.33
2022-10-25T19:36:20.364Z,3.27
2022-10-25T19:38:47.233Z,3.53
2022-10-25T19:41:16.484Z,3.20
2022-10-25T19:43:43.012Z,3.30
2022-10-25T19:46:11.001Z,2.43
2022-10-25T19:48:37.592Z,2.07
2022-10-25T19:51:05.166Z,2.50
2022-10-25T19:53:33.402Z,2.20
2022-10-25T19:56:00.329Z,2.50
2022-10-25T19:58:27.217Z,2.70
2022-10-25T20:01:01.687Z,2.60
2022-10-25T20:03:28.270Z,2.30
2022-10-25T20:05:57.409Z,2.30
2022-10-25T20:08:23.947Z,2.20
2022-10-25T20:10:51.849Z,2.57
2022-10-25T20:13:18.411Z,2.57
2022-10-25T20:15:47.811Z,3.57
2022-10-25T20:18:14.294Z,2.40
2022-10-25T20:20:40.828Z,2.40
2022-10-25T20:23:07.337Z,2.20
2022-10-25T20:25:33.861Z,1.90
2022-10-25T20:28:01.833Z,1.80
2022-10-25T20:30:28.637Z,1.80
2022-10-25T20:32:55.125Z,2.40
2022-10-25T20:35:24.743Z,1.67
2022-10-25T20:37:53.714Z,1.63
2022-10-25T20:40:20.205Z,1.63
2022-10-25T20:42:46.739Z,1.57
2022-10-25T20:45:14.741Z,1.70
2022-10-25T20:47:41.270Z,2.37
2022-10-25T20:50:08.331Z,1.83
2022-10-25T20:52:39.711Z,2.00
2022-10-25T20:55:14.492Z,1.93
2022-10-25T20:57:41.016Z,2.07
2022-10-25T21:00:08.306Z,2.03
2022-10-25T21:02:36.217Z,2.50
2022-10-25T21:05:02.779Z,2.03
2022-10-25T21:07:30.406Z,2.57
2022-10-25T21:09:56.996Z,2.17
2022-10-25T21:12:23.730Z,2.10
2022-10-25T21:14:50.220Z,2.03
2022-10-25T21:17:16.699Z,2.23
2022-10-25T21:19:44.556Z,2.10
2022-10-25T21:22:11.025Z,2.03
2022-10-25T21:24:37.532Z,2.10
2022-10-25T21:27:04.014Z,1.90
2022-10-25T21:29:30.534Z,1.70
2022-10-25T21:31:57.002Z,1.60
2022-10-25T21:34:23.535Z,2.00
2022-10-25T21:36:51.384Z,2.30
2022-10-25T21:39:17.862Z,2.17
2022-10-25T21:41:44.363Z,1.80
2022-10-25T21:44:10.835Z,1.93
2022-10-25T21:46:37.349Z,2.27
2022-10-25T21:49:03.857Z,1.97
2022-10-25T21:51:30.363Z,1.90
2022-10-25T21:53:58.205Z,1.67
2022-10-25T21:56:24.670Z,1.60
2022-10-25T21:58:51.185Z,1.77
2022-10-25T22:01:19.637Z,1.90
2022-10-25T22:03:46.321Z,1.60
2022-10-25T22:06:15.250Z,1.43
2022-10-25T22:08:42.057Z,1.50
2022-10-25T22:11:13.658Z,1.57
2022-10-25T22:13:40.174Z,1.70
2022-10-25T22:16:09.469Z,1.50
2022-10-25T22:18:36.351Z,1.43
2022-10-25T22:21:05.449Z,1.60
2022-10-25T22:23:32.604Z,1.50
2022-10-25T22:26:00.264Z,2.00
2022-10-25T22:28:28.227Z,2.00
2022-10-25T22:30:58.104Z,1.70
2022-10-25T22:33:24.642Z,1.63
2022-10-25T22:35:51.244Z,1.77
2022-10-25T22:38:17.755Z,2.20
2022-10-25T22:40:44.235Z,2.00
2022-10-25T22:43:10.738Z,1.50
2022-10-25T22:45:38.591Z,1.70
2022-10-25T22:48:05.283Z,1.80
2022-10-25T22:50:31.924Z,1.87
2022-10-25T22:52:58.433Z,1.63
2022-10-25T22:55:24.887Z,1.70
2022-10-25T22:57:51.504Z,1.67
2022-10-25T23:00:18.200Z,2.00
2022-10-25T23:02:46.272Z,1.70
2022-10-25T23:05:13.042Z,1.67
2022-10-25T23:07:39.505Z,1.50
2022-10-25T23:10:06.501Z,1.50
2022-10-25T23:12:32.991Z,1.40
2022-10-25T23:14:59.493Z,1.70
2022-10-25T23:17:25.971Z,1.73
2022-10-25T23:19:53.832Z,1.80
2022-10-25T23:22:20.306Z,1.53
2022-10-25T23:24:46.790Z,1.50
2022-10-25T23:27:13.308Z,1.40
2022-10-25T23:29:39.776Z,1.80
2022-10-25T23:32:06.344Z,1.60
2022-10-25T23:34:32.838Z,1.40
2022-10-25T23:37:00.685Z,1.47
2022-10-25T23:39:27.240Z,1.40
2022-10-25T23:41:53.736Z,1.50
2022-10-25T23:44:20.419Z,1.80
2022-10-25T23:46:46.941Z,1.20
2022-10-25T23:49:13.446Z,1.50
2022-10-25T23:51:39.936Z,1.20
2022-10-25T23:54:07.846Z,1.30
2022-10-25T23:56:34.373Z,1.67
2022-10-25T23:59:00.899Z,1.30
